createdAt,value
2017-05-16T00:00:20.908Z,983.98
2017-05-16T00:01:21.609Z,983.98
2017-05-16T00:02:22.309Z,983.96
2017-05-16T00:03:23.257Z,983.99
2017-05-16T00:04:23.954Z,983.98
2017-05-16T00:05:24.656Z,983.97
2017-05-16T00:06:25.352Z,983.97
2017-05-16T00:07:26.050Z,983.96
2017-05-16T00:08:26.951Z,983.96
2017-05-16T00:09:27.653Z,983.94
2017-05-16T00:10:28.357Z,983.94
2017-05-16T00:11:29.058Z,983.92
2017-05-16T00:12:29.755Z,983.96
2017-05-16T00:13:30.705Z,983.92
2017-05-16T00:14:31.405Z,983.97
2017-05-16T00:15:32.105Z,983.99
2017-05-16T00:16:32.806Z,984.01
2017-05-16T00:17:33.511Z,983.98
2017-05-16T00:18:34.462Z,983.98
2017-05-16T00:19:35.163Z,983.97
2017-05-16T00:20:35.862Z,983.97
2017-05-16T00:21:36.557Z,984.00
2017-05-16T00:22:37.258Z,983.99
2017-05-16T00:23:38.260Z,983.97
2017-05-16T00:24:38.961Z,983.96
2017-05-16T00:25:39.663Z,983.96
2017-05-16T00:26:40.367Z,983.94
2017-05-16T00:27:41.064Z,983.96
2017-05-16T00:28:42.014Z,983.93
2017-05-16T00:29:42.712Z,983.92
2017-05-16T00:30:43.413Z,983.96
2017-05-16T00:31:44.114Z,983.93
2017-05-16T00:32:44.815Z,983.92
2017-05-16T00:33:45.762Z,983.94
2017-05-16T00:34:46.463Z,983.90
2017-05-16T00:35:47.162Z,983.91
2017-05-16T00:36:47.862Z,983.92
2017-05-16T00:37:48.566Z,983.89
2017-05-16T00:38:49.514Z,983.89
2017-05-16T00:39:50.212Z,983.89
2017-05-16T00:40:50.912Z,983.91
2017-05-16T00:41:51.612Z,983.91
2017-05-16T00:42:52.307Z,983.88
2017-05-16T00:43:53.271Z,983.87
2017-05-16T00:44:53.969Z,983.89
2017-05-16T00:45:54.676Z,983.86
2017-05-16T00:46:55.374Z,983.86
2017-05-16T00:47:56.072Z,983.88
2017-05-16T00:48:57.019Z,983.88
2017-05-16T00:49:57.717Z,983.87
2017-05-16T00:50:58.420Z,983.87
2017-05-16T00:51:59.121Z,983.91
2017-05-16T00:52:59.822Z,983.86
2017-05-16T00:54:00.769Z,983.83
2017-05-16T00:55:01.516Z,983.86
2017-05-16T00:56:02.221Z,983.82
2017-05-16T00:57:02.929Z,983.83
2017-05-16T00:58:03.624Z,983.86
2017-05-16T00:59:04.574Z,983.82
2017-05-16T01:00:05.279Z,983.83
2017-05-16T01:01:05.976Z,983.85
2017-05-16T01:02:06.676Z,983.87
2017-05-16T01:03:07.371Z,983.82
2017-05-16T01:04:08.323Z,983.82
2017-05-16T01:05:09.020Z,983.86
2017-05-16T01:06:09.721Z,983.83
2017-05-16T01:07:10.421Z,983.84
2017-05-16T01:08:11.122Z,983.84
2017-05-16T01:09:12.070Z,983.85
2017-05-16T01:10:12.768Z,983.80
2017-05-16T01:11:13.465Z,983.80
2017-05-16T01:12:14.163Z,983.80
2017-05-16T01:13:14.864Z,983.81
2017-05-16T01:14:15.811Z,983.82
2017-05-16T01:15:16.508Z,983.79
2017-05-16T01:16:17.210Z,983.75
2017-05-16T01:17:17.917Z,983.78
2017-05-16T01:18:18.618Z,983.73
2017-05-16T01:19:19.569Z,983.76
2017-05-16T01:20:20.265Z,983.74
2017-05-16T01:21:20.964Z,983.70
2017-05-16T01:22:21.661Z,983.70
2017-05-16T01:23:22.362Z,983.63
2017-05-16T01:24:23.261Z,983.68
2017-05-16T01:25:23.965Z,983.65
2017-05-16T01:26:24.668Z,983.65
2017-05-16T01:27:25.368Z,983.67
2017-05-16T01:28:26.075Z,983.67
2017-05-16T01:29:27.019Z,983.68
2017-05-16T01:30:27.720Z,983.67
2017-05-16T01:31:28.417Z,983.66
2017-05-16T01:32:29.117Z,983.64
2017-05-16T01:33:29.817Z,983.60
2017-05-16T01:34:30.766Z,983.60
2017-05-16T01:35:31.463Z,983.57
2017-05-16T01:36:32.156Z,983.58
2017-05-16T01:37:32.854Z,983.56
2017-05-16T01:38:33.556Z,983.56
2017-05-16T01:39:34.556Z,983.55
2017-05-16T01:40:35.252Z,983.55
2017-05-16T01:41:35.953Z,983.53
2017-05-16T01:42:36.652Z,983.53
2017-05-16T01:43:37.348Z,983.51
2017-05-16T01:44:38.297Z,983.47
2017-05-16T01:45:38.992Z,983.48
2017-05-16T01:46:39.689Z,983.48
2017-05-16T01:47:40.388Z,983.46
2017-05-16T01:48:41.089Z,983.45
2017-05-16T01:49:41.987Z,983.45
2017-05-16T01:50:42.689Z,983.45
2017-05-16T01:51:43.390Z,983.48
2017-05-16T01:52:44.092Z,983.46
2017-05-16T01:53:44.791Z,983.46
2017-05-16T01:54:45.737Z,983.47
2017-05-16T01:55:46.436Z,983.51
2017-05-16T01:56:47.133Z,983.52
2017-05-16T01:57:47.827Z,983.50
2017-05-16T01:58:48.524Z,983.53
2017-05-16T01:59:49.468Z,983.54
2017-05-16T02:00:50.165Z,983.54
2017-05-16T02:01:50.858Z,983.53
2017-05-16T02:02:51.555Z,983.55
2017-05-16T02:03:52.259Z,983.53
2017-05-16T02:04:53.157Z,983.54
2017-05-16T02:05:53.855Z,983.57
2017-05-16T02:06:54.551Z,983.54
2017-05-16T02:07:55.257Z,983.49
2017-05-16T02:08:55.961Z,983.53
2017-05-16T02:09:56.862Z,983.50
2017-05-16T02:10:57.563Z,983.53
2017-05-16T02:11:58.261Z,983.55
2017-05-16T02:12:58.958Z,983.60
2017-05-16T02:13:59.659Z,983.54
2017-05-16T02:15:00.608Z,983.56
2017-05-16T02:16:01.313Z,983.56
2017-05-16T02:17:02.016Z,983.55
2017-05-16T02:18:02.718Z,983.55
2017-05-16T02:19:03.418Z,983.57
2017-05-16T02:20:04.326Z,983.54
2017-05-16T02:21:05.033Z,983.54
2017-05-16T02:22:05.733Z,983.55
2017-05-16T02:23:06.428Z,983.53
2017-05-16T02:24:07.123Z,983.54
2017-05-16T02:25:08.070Z,983.50
2017-05-16T02:26:08.766Z,983.52
2017-05-16T02:27:09.470Z,983.55
2017-05-16T02:28:10.165Z,983.50
2017-05-16T02:29:10.859Z,983.53
2017-05-16T02:30:11.808Z,983.59
2017-05-16T02:31:12.506Z,983.54
2017-05-16T02:32:13.202Z,983.54
2017-05-16T02:33:13.905Z,983.58
2017-05-16T02:34:14.603Z,983.55
2017-05-16T02:35:15.559Z,983.53
2017-05-16T02:36:16.258Z,983.54
2017-05-16T02:37:16.957Z,983.52
2017-05-16T02:38:17.652Z,983.54
2017-05-16T02:39:18.351Z,983.52
2017-05-16T02:40:19.247Z,983.51
2017-05-16T02:41:19.945Z,983.49
2017-05-16T02:42:20.639Z,983.53
2017-05-16T02:43:21.349Z,983.51
2017-05-16T02:44:22.050Z,983.52
2017-05-16T02:45:22.999Z,983.51
2017-05-16T02:46:23.698Z,983.49
2017-05-16T02:47:24.393Z,983.48
2017-05-16T02:48:25.093Z,983.50
2017-05-16T02:49:25.793Z,983.48
2017-05-16T02:50:26.739Z,983.47
2017-05-16T02:51:27.438Z,983.49
2017-05-16T02:52:28.138Z,983.49
2017-05-16T02:53:28.834Z,983.49
2017-05-16T02:54:29.530Z,983.53
2017-05-16T02:55:30.424Z,983.51
2017-05-16T02:56:31.121Z,983.48
2017-05-16T02:57:31.819Z,983.49
2017-05-16T02:58:32.520Z,983.46
2017-05-16T02:59:33.219Z,983.48
2017-05-16T03:00:34.167Z,983.48
2017-05-16T03:01:34.866Z,983.49
2017-05-16T03:02:35.567Z,983.54
2017-05-16T03:03:36.268Z,983.52
2017-05-16T03:04:36.965Z,983.53
2017-05-16T03:05:37.963Z,983.50
2017-05-16T03:06:38.657Z,983.47
2017-05-16T03:07:39.361Z,983.43
2017-05-16T03:08:40.058Z,983.49
2017-05-16T03:09:40.760Z,983.50
2017-05-16T03:10:41.706Z,983.49
2017-05-16T03:11:42.403Z,983.51
2017-05-16T03:12:43.101Z,983.49
2017-05-16T03:13:43.799Z,983.51
2017-05-16T03:14:44.497Z,983.45
2017-05-16T03:15:45.443Z,983.44
2017-05-16T03:16:46.138Z,983.41
2017-05-16T03:17:46.835Z,983.46
2017-05-16T03:18:47.531Z,983.41
2017-05-16T03:19:48.240Z,983.45
2017-05-16T03:20:49.142Z,983.45
2017-05-16T03:21:49.844Z,983.44
2017-05-16T03:22:50.567Z,983.48
2017-05-16T03:23:51.267Z,983.45
2017-05-16T03:24:51.961Z,983.44
2017-05-16T03:25:52.910Z,983.42
2017-05-16T03:26:53.610Z,983.44
2017-05-16T03:27:54.314Z,983.42
2017-05-16T03:28:55.012Z,983.44
2017-05-16T03:29:55.709Z,983.48
2017-05-16T03:30:56.610Z,983.47
2017-05-16T03:31:57.306Z,983.49
2017-05-16T03:32:58.007Z,983.50
2017-05-16T03:33:58.713Z,983.49
2017-05-16T03:34:59.409Z,983.52
2017-05-16T03:36:00.359Z,983.51
2017-05-16T03:37:01.055Z,983.50
2017-05-16T03:38:01.754Z,983.55
2017-05-16T03:39:02.451Z,983.55
2017-05-16T03:40:03.149Z,983.54
2017-05-16T03:41:04.099Z,983.57
2017-05-16T03:42:04.806Z,983.58
2017-05-16T03:43:05.508Z,983.57
2017-05-16T03:44:06.207Z,983.57
2017-05-16T03:45:06.910Z,983.55
2017-05-16T03:46:07.860Z,983.56
2017-05-16T03:47:08.563Z,983.57
2017-05-16T03:48:09.264Z,983.57
2017-05-16T03:49:09.966Z,983.62
2017-05-16T03:50:10.668Z,983.58
2017-05-16T03:51:11.618Z,983.64
2017-05-16T03:52:12.321Z,983.62
2017-05-16T03:53:13.022Z,983.61
2017-05-16T03:54:13.727Z,983.59
2017-05-16T03:55:14.425Z,983.61
2017-05-16T03:56:15.379Z,983.66
2017-05-16T03:57:16.079Z,983.63
2017-05-16T03:58:16.779Z,983.65
2017-05-16T03:59:17.484Z,983.63
2017-05-16T04:00:18.187Z,983.67
2017-05-16T04:01:19.148Z,983.67
2017-05-16T04:02:19.848Z,983.67
2017-05-16T04:03:20.544Z,983.66
2017-05-16T04:04:21.254Z,983.67
2017-05-16T04:05:21.957Z,983.68
2017-05-16T04:06:22.910Z,983.72
2017-05-16T04:07:23.606Z,983.69
2017-05-16T04:08:24.303Z,983.65
2017-05-16T04:09:25.005Z,983.67
2017-05-16T04:10:25.706Z,983.67
2017-05-16T04:11:26.607Z,983.66
2017-05-16T04:12:27.310Z,983.63
2017-05-16T04:13:28.018Z,983.65
2017-05-16T04:14:28.719Z,983.68
2017-05-16T04:15:29.416Z,983.65
2017-05-16T04:16:30.414Z,983.68
2017-05-16T04:17:31.116Z,983.67
2017-05-16T04:18:31.815Z,983.71
2017-05-16T04:19:32.513Z,983.68
2017-05-16T04:20:33.212Z,983.70
2017-05-16T04:21:34.159Z,983.71
2017-05-16T04:22:34.856Z,983.69
2017-05-16T04:23:35.553Z,983.70
2017-05-16T04:24:36.254Z,983.70
2017-05-16T04:25:36.951Z,983.74
2017-05-16T04:26:37.899Z,983.72
2017-05-16T04:27:38.607Z,983.72
2017-05-16T04:28:39.309Z,983.73
2017-05-16T04:29:40.013Z,983.75
2017-05-16T04:30:40.713Z,983.72
2017-05-16T04:31:41.664Z,983.76
2017-05-16T04:32:42.360Z,983.73
2017-05-16T04:33:43.062Z,983.74
2017-05-16T04:34:43.763Z,983.75
2017-05-16T04:35:44.463Z,983.73
2017-05-16T04:36:45.362Z,983.76
2017-05-16T04:37:46.059Z,983.78
2017-05-16T04:38:46.761Z,983.73
2017-05-16T04:39:47.464Z,983.73
2017-05-16T04:40:48.170Z,983.75
2017-05-16T04:41:49.123Z,983.74
2017-05-16T04:42:49.826Z,983.76
2017-05-16T04:43:50.523Z,983.76
2017-05-16T04:44:51.224Z,983.75
2017-05-16T04:45:51.929Z,983.79
2017-05-16T04:46:52.883Z,983.77
2017-05-16T04:47:53.584Z,983.80
2017-05-16T04:48:54.287Z,983.79
2017-05-16T04:49:54.988Z,983.82
2017-05-16T04:50:55.689Z,983.83
2017-05-16T04:51:58.093Z,983.82
2017-05-16T04:52:58.792Z,983.81
2017-05-16T04:53:59.498Z,983.85
2017-05-16T04:55:00.196Z,983.88
2017-05-16T04:56:00.897Z,983.89
2017-05-16T04:57:01.800Z,983.94
2017-05-16T04:58:02.503Z,983.94
2017-05-16T04:59:03.206Z,983.95
2017-05-16T05:00:03.906Z,983.95
2017-05-16T05:01:04.606Z,983.94
2017-05-16T05:02:05.559Z,983.96
2017-05-16T05:03:06.267Z,983.96
2017-05-16T05:04:06.969Z,983.97
2017-05-16T05:05:07.670Z,983.97
2017-05-16T05:06:08.376Z,983.96
2017-05-16T05:07:09.328Z,983.97
2017-05-16T05:08:10.031Z,983.99
2017-05-16T05:09:10.738Z,983.99
2017-05-16T05:10:11.438Z,983.99
2017-05-16T05:11:12.140Z,984.00
2017-05-16T05:12:13.041Z,984.00
2017-05-16T05:13:13.744Z,983.99
2017-05-16T05:14:14.442Z,984.04
2017-05-16T05:15:15.145Z,984.05
2017-05-16T05:16:15.853Z,984.05
2017-05-16T05:17:18.314Z,984.05
2017-05-16T05:18:19.015Z,984.09
2017-05-16T05:19:19.717Z,984.09
2017-05-16T05:20:20.429Z,984.10
2017-05-16T05:21:21.134Z,984.09
2017-05-16T05:22:22.088Z,984.05
2017-05-16T05:23:22.792Z,984.05
2017-05-16T05:24:23.493Z,984.05
2017-05-16T05:25:24.195Z,984.09
2017-05-16T05:26:24.897Z,984.09
2017-05-16T05:27:25.849Z,984.12
2017-05-16T05:28:26.550Z,984.13
2017-05-16T05:29:27.260Z,984.12
2017-05-16T05:30:27.964Z,984.15
2017-05-16T05:31:28.664Z,984.15
2017-05-16T05:32:29.617Z,984.11
2017-05-16T05:33:30.321Z,984.16
2017-05-16T05:34:31.031Z,984.15
2017-05-16T05:35:31.732Z,984.11
2017-05-16T05:36:32.434Z,984.11
2017-05-16T05:37:33.341Z,984.10
2017-05-16T05:38:34.053Z,984.10
2017-05-16T05:39:34.755Z,984.09
2017-05-16T05:40:35.462Z,984.09
2017-05-16T05:41:36.166Z,984.10
2017-05-16T05:42:37.120Z,984.10
2017-05-16T05:43:37.822Z,984.09
2017-05-16T05:44:38.528Z,984.11
2017-05-16T05:45:39.232Z,984.10
2017-05-16T05:46:39.938Z,984.17
2017-05-16T05:47:40.843Z,984.13
2017-05-16T05:48:41.551Z,984.14
2017-05-16T05:49:42.253Z,984.14
2017-05-16T05:50:42.959Z,984.12
2017-05-16T05:51:43.663Z,984.12
2017-05-16T05:52:44.567Z,984.14
2017-05-16T05:53:45.276Z,984.15
2017-05-16T05:54:45.979Z,984.11
2017-05-16T05:55:46.681Z,984.15
2017-05-16T05:56:47.631Z,984.15
2017-05-16T05:57:48.587Z,984.12
2017-05-16T05:58:49.291Z,984.09
2017-05-16T05:59:49.997Z,984.11
2017-05-16T06:00:50.700Z,984.10
2017-05-16T06:01:51.406Z,984.11
2017-05-16T06:02:52.370Z,984.11
2017-05-16T06:03:53.078Z,984.14
2017-05-16T06:04:53.790Z,984.15
2017-05-16T06:05:54.491Z,984.13
2017-05-16T06:06:55.193Z,984.15
2017-05-16T06:07:56.147Z,984.15
2017-05-16T06:08:56.854Z,984.13
2017-05-16T06:09:57.559Z,984.13
2017-05-16T06:10:58.278Z,984.14
2017-05-16T06:11:58.982Z,984.15
2017-05-16T06:12:59.887Z,984.17
2017-05-16T06:14:00.592Z,984.14
2017-05-16T06:15:01.302Z,984.18
2017-05-16T06:16:02.017Z,984.14
2017-05-16T06:17:02.728Z,984.11
2017-05-16T06:18:03.734Z,984.14
2017-05-16T06:19:04.442Z,984.17
2017-05-16T06:20:05.145Z,984.17
2017-05-16T06:21:05.850Z,984.20
2017-05-16T06:22:06.557Z,984.21
2017-05-16T06:23:07.511Z,984.31
2017-05-16T06:24:08.215Z,984.23
2017-05-16T06:25:08.917Z,984.23
2017-05-16T06:26:09.620Z,984.24
2017-05-16T06:27:10.321Z,984.26
2017-05-16T06:28:11.274Z,984.25
2017-05-16T06:29:11.985Z,984.26
2017-05-16T06:30:12.693Z,984.24
2017-05-16T06:31:13.395Z,984.26
2017-05-16T06:32:14.100Z,984.31
2017-05-16T06:33:15.072Z,984.28
2017-05-16T06:34:15.776Z,984.28
2017-05-16T06:35:16.488Z,984.26
2017-05-16T06:36:17.192Z,984.29
2017-05-16T06:37:17.896Z,984.29
2017-05-16T06:38:18.854Z,984.34
2017-05-16T06:39:19.561Z,984.35
2017-05-16T06:40:20.270Z,984.30
2017-05-16T06:41:20.982Z,984.34
2017-05-16T06:42:21.699Z,984.28
2017-05-16T06:43:22.661Z,984.30
2017-05-16T06:44:23.377Z,984.30
2017-05-16T06:45:24.080Z,984.31
2017-05-16T06:46:24.784Z,984.32
2017-05-16T06:47:25.494Z,984.32
2017-05-16T06:48:26.450Z,984.35
2017-05-16T06:49:27.160Z,984.35
2017-05-16T06:50:27.858Z,984.34
2017-05-16T06:51:28.559Z,984.32
2017-05-16T06:52:29.263Z,984.30
2017-05-16T06:53:30.215Z,984.35
2017-05-16T06:54:30.930Z,984.36
2017-05-16T06:55:31.645Z,984.35
2017-05-16T06:56:32.353Z,984.34
2017-05-16T06:57:33.056Z,984.34
2017-05-16T06:58:34.061Z,984.30
2017-05-16T06:59:34.766Z,984.30
2017-05-16T07:00:35.466Z,984.35
2017-05-16T07:01:36.169Z,984.33
2017-05-16T07:02:36.884Z,984.39
2017-05-16T07:03:37.845Z,984.39
2017-05-16T07:04:38.549Z,984.37
2017-05-16T07:05:39.256Z,984.34
2017-05-16T07:06:39.959Z,984.35
2017-05-16T07:07:40.665Z,984.36
2017-05-16T07:08:41.623Z,984.38
2017-05-16T07:09:42.327Z,984.37
2017-05-16T07:10:43.036Z,984.38
2017-05-16T07:11:43.748Z,984.39
2017-05-16T07:12:44.453Z,984.38
2017-05-16T07:13:45.410Z,984.41
2017-05-16T07:14:46.113Z,984.41
2017-05-16T07:15:46.814Z,984.43
2017-05-16T07:16:47.515Z,984.36
2017-05-16T07:17:48.221Z,984.39
2017-05-16T07:18:49.179Z,984.41
2017-05-16T07:19:49.885Z,984.40
2017-05-16T07:20:50.595Z,984.42
2017-05-16T07:21:51.300Z,984.38
2017-05-16T07:22:52.007Z,984.36
2017-05-16T07:23:52.919Z,984.35
2017-05-16T07:24:53.624Z,984.38
2017-05-16T07:25:54.327Z,984.33
2017-05-16T07:26:55.029Z,984.30
2017-05-16T07:27:55.736Z,984.28
2017-05-16T07:28:56.643Z,984.33
2017-05-16T07:29:57.351Z,984.33
2017-05-16T07:30:58.063Z,984.28
2017-05-16T07:31:58.773Z,984.32
2017-05-16T07:32:59.484Z,984.29
2017-05-16T07:34:00.390Z,984.33
2017-05-16T07:35:01.120Z,984.30
2017-05-16T07:36:01.832Z,984.26
2017-05-16T07:37:02.538Z,984.29
2017-05-16T07:38:03.246Z,984.27
2017-05-16T07:39:04.201Z,984.27
2017-05-16T07:40:04.903Z,984.29
2017-05-16T07:41:05.606Z,984.27
2017-05-16T07:42:06.312Z,984.30
2017-05-16T07:43:07.015Z,984.30
2017-05-16T07:44:07.974Z,984.29
2017-05-16T07:45:08.683Z,984.26
2017-05-16T07:46:09.390Z,984.24
2017-05-16T07:47:10.094Z,984.27
2017-05-16T07:48:10.802Z,984.29
2017-05-16T07:49:11.758Z,984.28
2017-05-16T07:50:12.466Z,984.31
2017-05-16T07:51:13.173Z,984.26
2017-05-16T07:52:13.879Z,984.27
2017-05-16T07:53:14.599Z,984.25
2017-05-16T07:54:15.560Z,984.24
2017-05-16T07:55:16.274Z,984.26
2017-05-16T07:56:16.977Z,984.29
2017-05-16T07:57:17.682Z,984.26
2017-05-16T07:58:18.391Z,984.28
2017-05-16T07:59:19.297Z,984.28
2017-05-16T08:00:20.004Z,984.24
2017-05-16T08:01:20.714Z,984.22
2017-05-16T08:02:21.418Z,984.26
2017-05-16T08:03:22.133Z,984.24
2017-05-16T08:04:23.087Z,984.25
2017-05-16T08:05:23.790Z,984.26
2017-05-16T08:06:24.493Z,984.30
2017-05-16T08:07:25.198Z,984.28
2017-05-16T08:08:25.902Z,984.33
2017-05-16T08:09:26.864Z,984.31
2017-05-16T08:10:27.575Z,984.35
2017-05-16T08:11:28.278Z,984.33
2017-05-16T08:12:28.989Z,984.33
2017-05-16T08:13:29.690Z,984.33
2017-05-16T08:14:30.664Z,984.33
2017-05-16T08:15:31.374Z,984.30
2017-05-16T08:16:32.082Z,984.34
2017-05-16T08:17:32.790Z,984.32
2017-05-16T08:18:33.494Z,984.31
2017-05-16T08:19:34.453Z,984.29
2017-05-16T08:20:35.164Z,984.29
2017-05-16T08:21:35.870Z,984.25
2017-05-16T08:22:36.577Z,984.24
2017-05-16T08:23:37.284Z,984.29
2017-05-16T08:24:38.239Z,984.28
2017-05-16T08:25:38.951Z,984.29
2017-05-16T08:26:39.652Z,984.29
2017-05-16T08:27:40.358Z,984.26
2017-05-16T08:28:41.071Z,984.28
2017-05-16T08:29:41.980Z,984.26
2017-05-16T08:30:42.687Z,984.29
2017-05-16T08:31:43.393Z,984.29
2017-05-16T08:32:44.101Z,984.30
2017-05-16T08:33:44.815Z,984.24
2017-05-16T08:34:45.722Z,984.28
2017-05-16T08:35:46.431Z,984.25
2017-05-16T08:36:47.137Z,984.25
2017-05-16T08:37:47.843Z,984.26
2017-05-16T08:38:48.548Z,984.20
2017-05-16T08:39:49.503Z,984.20
2017-05-16T08:40:50.210Z,984.20
2017-05-16T08:41:50.916Z,984.14
2017-05-16T08:42:51.624Z,984.19
2017-05-16T08:43:52.331Z,984.16
2017-05-16T08:44:53.243Z,984.21
2017-05-16T08:45:53.957Z,984.19
2017-05-16T08:46:54.664Z,984.15
2017-05-16T08:47:55.373Z,984.18
2017-05-16T08:48:56.084Z,984.14
2017-05-16T08:49:56.998Z,984.17
2017-05-16T08:50:57.704Z,984.17
2017-05-16T08:51:58.413Z,984.14
2017-05-16T08:52:59.123Z,984.16
2017-05-16T08:53:59.835Z,984.12
2017-05-16T08:55:00.796Z,984.10
2017-05-16T08:56:01.504Z,984.15
2017-05-16T08:57:02.210Z,984.12
2017-05-16T08:58:02.927Z,984.17
2017-05-16T08:59:03.636Z,984.11
2017-05-16T09:00:04.596Z,984.14
2017-05-16T09:01:05.315Z,984.10
2017-05-16T09:02:06.022Z,984.13
2017-05-16T09:03:06.737Z,984.14
2017-05-16T09:04:07.447Z,984.15
2017-05-16T09:05:08.405Z,984.15
2017-05-16T09:06:09.116Z,984.11
2017-05-16T09:07:09.828Z,984.15
2017-05-16T09:08:10.547Z,984.12
2017-05-16T09:09:11.250Z,984.20
2017-05-16T09:10:12.156Z,984.20
2017-05-16T09:11:12.867Z,984.21
2017-05-16T09:12:13.585Z,984.18
2017-05-16T09:13:14.293Z,984.22
2017-05-16T09:14:15.004Z,984.16
2017-05-16T09:15:15.962Z,984.16
2017-05-16T09:16:16.667Z,984.13
2017-05-16T09:17:17.391Z,984.11
2017-05-16T09:18:18.108Z,984.16
2017-05-16T09:19:18.819Z,984.19
2017-05-16T09:20:19.779Z,984.17
2017-05-16T09:21:20.486Z,984.19
2017-05-16T09:22:21.195Z,984.14
2017-05-16T09:23:21.901Z,984.14
2017-05-16T09:24:22.611Z,984.10
2017-05-16T09:25:23.625Z,984.12
2017-05-16T09:26:24.326Z,984.11
2017-05-16T09:27:25.034Z,984.14
2017-05-16T09:28:25.741Z,984.10
2017-05-16T09:29:26.450Z,984.08
2017-05-16T09:30:27.362Z,984.08
2017-05-16T09:31:28.073Z,984.08
2017-05-16T09:32:28.781Z,984.09
2017-05-16T09:33:29.485Z,984.08
2017-05-16T09:34:30.191Z,984.04
2017-05-16T09:35:31.149Z,984.05
2017-05-16T09:36:31.860Z,984.07
2017-05-16T09:37:32.573Z,984.03
2017-05-16T09:38:33.290Z,984.05
2017-05-16T09:39:33.997Z,984.05
2017-05-16T09:40:34.960Z,984.05
2017-05-16T09:41:35.683Z,984.04
2017-05-16T09:42:36.396Z,984.04
2017-05-16T09:43:37.110Z,984.02
2017-05-16T09:44:37.815Z,984.05
2017-05-16T09:45:38.778Z,983.96
2017-05-16T09:46:39.522Z,983.93
2017-05-16T09:47:40.234Z,983.93
2017-05-16T09:48:40.948Z,983.93
2017-05-16T09:49:41.657Z,983.91
2017-05-16T09:50:42.614Z,983.89
2017-05-16T09:51:43.321Z,983.89
2017-05-16T09:52:44.029Z,983.91
2017-05-16T09:53:44.736Z,983.83
2017-05-16T09:54:45.443Z,983.81
2017-05-16T09:55:46.402Z,983.80
2017-05-16T09:56:47.110Z,983.82
2017-05-16T09:57:47.822Z,983.85
2017-05-16T09:58:48.530Z,983.82
2017-05-16T09:59:49.237Z,983.83
2017-05-16T10:00:50.195Z,983.79
2017-05-16T10:01:50.902Z,983.76
2017-05-16T10:02:51.608Z,983.74
2017-05-16T10:03:52.316Z,983.74
2017-05-16T10:04:53.032Z,983.74
2017-05-16T10:05:53.991Z,983.72
2017-05-16T10:06:54.697Z,983.69
2017-05-16T10:07:55.411Z,983.65
2017-05-16T10:08:56.120Z,983.64
2017-05-16T10:09:56.830Z,983.67
2017-05-16T10:10:57.790Z,983.69
2017-05-16T10:11:58.501Z,983.69
2017-05-16T10:12:59.213Z,983.68
2017-05-16T10:13:59.922Z,983.75
2017-05-16T10:15:00.630Z,983.71
2017-05-16T10:16:01.543Z,983.65
2017-05-16T10:17:02.255Z,983.67
2017-05-16T10:18:02.968Z,983.71
2017-05-16T10:19:03.678Z,983.68
2017-05-16T10:20:04.385Z,983.67
2017-05-16T10:21:05.342Z,983.69
2017-05-16T10:22:06.057Z,983.67
2017-05-16T10:23:06.767Z,983.68
2017-05-16T10:24:07.478Z,983.69
2017-05-16T10:25:08.189Z,983.70
2017-05-16T10:26:09.103Z,983.65
2017-05-16T10:27:09.814Z,983.68
2017-05-16T10:28:10.524Z,983.68
2017-05-16T10:29:11.250Z,983.66
2017-05-16T10:30:11.960Z,983.68
2017-05-16T10:31:12.928Z,983.67
2017-05-16T10:32:13.636Z,983.60
2017-05-16T10:33:14.348Z,983.65
2017-05-16T10:34:15.059Z,983.62
2017-05-16T10:36:14.375Z,983.58
2017-05-16T10:37:15.084Z,983.59
2017-05-16T10:38:15.794Z,983.58
2017-05-16T10:39:16.507Z,983.61
2017-05-16T10:40:17.216Z,983.58
2017-05-16T10:41:18.179Z,983.57
2017-05-16T10:42:18.892Z,983.54
2017-05-16T10:43:19.602Z,983.52
2017-05-16T10:44:20.312Z,983.53
2017-05-16T10:45:21.027Z,983.51
2017-05-16T10:46:21.988Z,983.55
2017-05-16T10:47:22.703Z,983.51
2017-05-16T10:48:23.419Z,983.51
2017-05-16T10:49:24.132Z,983.47
2017-05-16T10:50:24.840Z,983.52
2017-05-16T10:51:25.799Z,983.53
2017-05-16T10:52:26.509Z,983.50
2017-05-16T10:53:27.222Z,983.50
2017-05-16T10:54:27.934Z,983.49
2017-05-16T10:55:28.644Z,983.46
2017-05-16T10:56:29.606Z,983.50
2017-05-16T10:57:30.313Z,983.52
2017-05-16T10:58:31.020Z,983.48
2017-05-16T10:59:31.733Z,983.42
2017-05-16T11:00:32.446Z,983.45
2017-05-16T11:01:33.411Z,983.45
2017-05-16T11:02:34.129Z,983.42
2017-05-16T11:03:34.854Z,983.40
2017-05-16T11:04:35.566Z,983.39
2017-05-16T11:05:36.280Z,983.38
2017-05-16T11:06:37.247Z,983.37
2017-05-16T11:07:37.960Z,983.39
2017-05-16T11:08:38.692Z,983.38
2017-05-16T11:09:39.409Z,983.36
2017-05-16T11:10:40.122Z,983.37
2017-05-16T11:11:41.084Z,983.36
2017-05-16T11:12:41.795Z,983.36
2017-05-16T11:13:42.507Z,983.36
2017-05-16T11:14:43.218Z,983.32
2017-05-16T11:15:43.931Z,983.33
2017-05-16T11:16:44.854Z,983.29
2017-05-16T11:17:45.565Z,983.32
2017-05-16T11:18:46.285Z,983.29
2017-05-16T11:19:46.999Z,983.28
2017-05-16T11:20:47.711Z,983.29
2017-05-16T11:21:48.673Z,983.27
2017-05-16T11:22:49.388Z,983.27
2017-05-16T11:23:50.098Z,983.30
2017-05-16T11:24:50.815Z,983.23
2017-05-16T11:25:51.542Z,983.25
2017-05-16T11:26:54.003Z,983.26
2017-05-16T11:27:54.719Z,983.29
2017-05-16T11:28:55.434Z,983.34
2017-05-16T11:29:56.146Z,983.29
2017-05-16T11:30:56.857Z,983.29
2017-05-16T11:31:57.827Z,983.29
2017-05-16T11:32:58.543Z,983.27
2017-05-16T11:33:59.261Z,983.36
2017-05-16T11:34:59.973Z,983.36
2017-05-16T11:36:00.689Z,983.42
2017-05-16T11:37:01.605Z,983.45
2017-05-16T11:38:02.319Z,983.38
2017-05-16T11:39:03.064Z,983.39
2017-05-16T11:40:03.783Z,983.39
2017-05-16T11:41:04.499Z,983.40
2017-05-16T11:42:05.464Z,983.34
2017-05-16T11:43:06.182Z,983.33
2017-05-16T11:44:06.896Z,983.27
2017-05-16T11:45:07.605Z,983.33
2017-05-16T11:46:08.319Z,983.33
2017-05-16T11:47:09.284Z,983.30
2017-05-16T11:48:10.003Z,983.32
2017-05-16T11:49:10.718Z,983.30
2017-05-16T11:50:11.432Z,983.30
2017-05-16T11:51:12.146Z,983.31
2017-05-16T11:52:13.108Z,983.24
2017-05-16T11:53:13.821Z,983.28
2017-05-16T11:54:14.536Z,983.31
2017-05-16T11:55:15.263Z,983.25
2017-05-16T11:56:15.985Z,983.28
2017-05-16T11:57:16.903Z,983.26
2017-05-16T11:58:17.618Z,983.24
2017-05-16T11:59:18.339Z,983.22
2017-05-16T12:00:19.057Z,983.18
2017-05-16T12:01:19.775Z,983.19
2017-05-16T12:02:20.748Z,983.18
2017-05-16T12:03:21.467Z,983.14
2017-05-16T12:04:22.190Z,983.17
2017-05-16T12:05:22.911Z,983.17
2017-05-16T12:06:23.632Z,983.16
2017-05-16T12:07:24.653Z,983.13
2017-05-16T12:08:25.378Z,983.22
2017-05-16T12:09:26.101Z,983.23
2017-05-16T12:10:26.821Z,983.24
2017-05-16T12:11:27.540Z,983.24
2017-05-16T12:12:28.559Z,983.27
2017-05-16T12:13:29.277Z,983.21
2017-05-16T12:14:29.993Z,983.17
2017-05-16T12:15:30.715Z,983.18
2017-05-16T12:16:31.434Z,983.16
2017-05-16T12:17:32.457Z,983.21
2017-05-16T12:18:33.176Z,983.14
2017-05-16T12:19:33.898Z,983.13
2017-05-16T12:20:34.622Z,983.09
2017-05-16T12:21:35.359Z,983.15
2017-05-16T12:22:36.338Z,983.12
2017-05-16T12:23:37.067Z,983.11
2017-05-16T12:24:37.787Z,983.13
2017-05-16T12:25:38.517Z,983.15
2017-05-16T12:26:39.237Z,983.14
2017-05-16T12:27:40.207Z,983.10
2017-05-16T12:28:40.928Z,983.11
2017-05-16T12:29:41.650Z,983.06
2017-05-16T12:30:42.379Z,983.04
2017-05-16T12:31:43.109Z,983.02
2017-05-16T12:32:44.131Z,982.94
2017-05-16T12:33:44.853Z,983.04
2017-05-16T12:34:45.586Z,982.99
2017-05-16T12:35:46.308Z,982.97
2017-05-16T12:36:47.033Z,982.98
2017-05-16T12:37:48.015Z,982.96
2017-05-16T12:38:48.739Z,982.93